createdAt,value
2022-09-25T00:02:18.236Z,99.90
2022-09-25T00:04:52.857Z,99.90
2022-09-25T00:07:39.115Z,99.90
2022-09-25T00:10:17.300Z,99.90
2022-09-25T00:12:58.276Z,99.90
2022-09-25T00:15:48.115Z,99.90
2022-09-25T00:18:49.295Z,99.90
2022-09-25T00:21:34.366Z,99.90
2022-09-25T00:24:06.716Z,99.90
2022-09-25T00:26:38.233Z,99.90
2022-09-25T00:29:16.298Z,99.90
2022-09-25T00:31:48.213Z,99.90
2022-09-25T00:34:17.967Z,99.90
2022-09-25T00:36:49.230Z,99.90
2022-09-25T00:39:19.450Z,99.90
2022-09-25T00:41:59.085Z,99.90
2022-09-25T00:44:58.730Z,99.90
2022-09-25T00:47:51.440Z,99.90
2022-09-25T00:50:35.236Z,99.90
2022-09-25T00:53:14.860Z,99.90
2022-09-25T00:56:14.369Z,99.90
2022-09-25T00:58:53.705Z,99.90
2022-09-25T01:01:23.459Z,99.90
2022-09-25T01:04:13.359Z,99.90
2022-09-25T01:06:57.255Z,99.90
2022-09-25T01:09:26.032Z,99.90
2022-09-25T01:11:58.391Z,99.90
2022-09-25T01:14:27.163Z,99.90
2022-09-25T01:17:06.339Z,99.90
2022-09-25T01:19:50.884Z,99.90
2022-09-25T01:22:52.929Z,99.90
2022-09-25T01:25:49.779Z,99.90
2022-09-25T01:28:46.612Z,99.90
2022-09-25T01:31:47.981Z,99.90
2022-09-25T01:34:49.869Z,99.90
2022-09-25T01:37:27.855Z,99.90
2022-09-25T01:40:09.728Z,99.90
2022-09-25T01:43:27.527Z,99.90
2022-09-25T01:46:03.894Z,99.90
2022-09-25T01:48:46.309Z,99.90
2022-09-25T01:51:24.182Z,99.90
2022-09-25T01:54:06.751Z,99.90
2022-09-25T01:56:39.688Z,99.90
2022-09-25T01:59:27.155Z,99.90
2022-09-25T02:02:07.166Z,99.90
2022-09-25T02:04:41.420Z,99.90
2022-09-25T02:07:32.125Z,99.90
2022-09-25T02:10:06.754Z,99.90
2022-09-25T02:12:55.002Z,99.90
2022-09-25T02:15:33.955Z,99.90
2022-09-25T02:18:38.248Z,99.90
2022-09-25T02:21:18.609Z,99.90
2022-09-25T02:24:03.818Z,99.90
2022-09-25T02:26:45.368Z,99.90
2022-09-25T02:29:37.507Z,99.90
2022-09-25T02:32:09.142Z,99.90
2022-09-25T02:34:39.905Z,99.90
2022-09-25T02:37:14.878Z,99.90
2022-09-25T02:40:18.315Z,99.90
2022-09-25T02:42:54.631Z,99.90
2022-09-25T02:45:41.465Z,99.90
2022-09-25T02:48:39.047Z,99.90
2022-09-25T02:51:23.365Z,99.90
2022-09-25T02:54:21.277Z,99.90
2022-09-25T02:56:59.983Z,99.90
2022-09-25T02:59:36.389Z,99.90
2022-09-25T03:02:16.038Z,99.90
2022-09-25T03:04:53.544Z,99.90
2022-09-25T03:07:52.784Z,99.90
2022-09-25T03:10:28.237Z,99.90
2022-09-25T03:13:18.813Z,99.90
2022-09-25T03:15:54.165Z,99.90
2022-09-25T03:18:28.865Z,99.90
2022-09-25T03:21:14.941Z,99.90
2022-09-25T03:24:26.183Z,99.90
2022-09-25T03:27:02.609Z,99.90
2022-09-25T03:29:42.339Z,99.90
2022-09-25T03:32:13.971Z,99.90
2022-09-25T03:35:00.970Z,99.90
2022-09-25T03:37:30.419Z,99.90
2022-09-25T03:39:59.778Z,99.90
2022-09-25T03:42:32.492Z,99.90
2022-09-25T03:45:01.731Z,99.90
2022-09-25T03:47:31.238Z,99.90
2022-09-25T03:51:04.787Z,99.90
2022-09-25T03:54:25.780Z,99.90
2022-09-25T03:56:54.624Z,99.90
2022-09-25T03:59:34.905Z,99.90
2022-09-25T04:02:04.689Z,99.90
2022-09-25T04:04:39.081Z,99.90
2022-09-25T04:07:10.559Z,99.90
2022-09-25T04:09:40.010Z,99.90
2022-09-25T04:12:18.346Z,99.90
2022-09-25T04:14:48.229Z,99.90
2022-09-25T04:17:19.537Z,99.90
2022-09-25T04:19:50.549Z,99.90
2022-09-25T04:22:18.924Z,99.90
2022-09-25T04:25:04.278Z,99.90
2022-09-25T04:27:32.524Z,99.90
2022-09-25T04:30:29.054Z,99.90
2022-09-25T04:33:21.839Z,99.90
2022-09-25T04:35:57.730Z,99.90
2022-09-25T04:38:35.387Z,99.90
2022-09-25T04:41:16.724Z,99.90
2022-09-25T04:43:49.079Z,99.90
2022-09-25T04:46:22.703Z,99.90
2022-09-25T04:48:56.659Z,99.90
2022-09-25T04:51:25.030Z,99.90
2022-09-25T04:54:07.399Z,99.90
2022-09-25T04:56:36.778Z,99.90
2022-09-25T04:59:18.534Z,99.90
2022-09-25T05:01:54.365Z,99.90
2022-09-25T05:04:30.778Z,99.90
2022-09-25T05:07:15.323Z,99.90
2022-09-25T05:09:46.489Z,99.90
2022-09-25T05:12:22.514Z,99.90
2022-09-25T05:14:51.058Z,99.90
2022-09-25T05:17:22.797Z,99.90
2022-09-25T05:20:01.627Z,99.90
2022-09-25T05:22:29.932Z,99.90
2022-09-25T05:25:17.015Z,99.90
2022-09-25T05:27:46.596Z,99.90
2022-09-25T05:30:32.219Z,99.90
2022-09-25T05:33:07.268Z,99.90
2022-09-25T05:35:36.827Z,99.90
2022-09-25T05:38:09.228Z,99.90
2022-09-25T05:40:40.457Z,99.90
2022-09-25T05:43:22.811Z,99.90
2022-09-25T05:46:03.179Z,99.90
2022-09-25T05:48:43.288Z,99.90
2022-09-25T05:51:15.255Z,99.90
2022-09-25T05:53:43.798Z,99.90
2022-09-25T05:56:21.770Z,99.90
2022-09-25T05:58:58.851Z,99.90
2022-09-25T06:01:41.461Z,99.90
2022-09-25T06:04:23.635Z,99.90
2022-09-25T06:06:52.734Z,99.90
2022-09-25T06:09:20.898Z,99.90
2022-09-25T06:11:48.982Z,99.90
2022-09-25T06:14:17.329Z,99.90
2022-09-25T06:16:45.314Z,99.90
2022-09-25T06:19:13.390Z,99.90
2022-09-25T06:21:43.958Z,99.90
2022-09-25T06:24:13.502Z,99.90
2022-09-25T06:26:41.879Z,99.90
2022-09-25T06:29:09.842Z,99.90
2022-09-25T06:31:43.811Z,99.90
2022-09-25T06:34:12.459Z,99.90
2022-09-25T06:36:45.900Z,99.90
2022-09-25T06:39:14.024Z,99.90
2022-09-25T06:41:42.416Z,99.90
2022-09-25T06:44:11.269Z,99.90
2022-09-25T06:46:45.253Z,99.90
2022-09-25T06:49:14.734Z,99.90
2022-09-25T06:51:44.265Z,99.90
2022-09-25T06:54:12.480Z,99.90
2022-09-25T06:56:40.686Z,99.90
2022-09-25T06:59:10.504Z,99.90
2022-09-25T07:01:39.775Z,99.90
2022-09-25T07:04:06.916Z,99.90
2022-09-25T07:06:37.378Z,99.90
2022-09-25T07:09:06.984Z,99.90
2022-09-25T07:11:35.537Z,99.90
2022-09-25T07:14:13.386Z,99.90
2022-09-25T07:17:06.856Z,99.90
2022-09-25T07:19:39.199Z,99.90
2022-09-25T07:22:17.959Z,99.90
2022-09-25T07:24:47.740Z,99.90
2022-09-25T07:27:18.296Z,99.90
2022-09-25T07:29:47.335Z,99.90
2022-09-25T07:32:17.078Z,99.90
2022-09-25T07:34:51.395Z,99.90
2022-09-25T07:37:22.942Z,99.90
2022-09-25T07:40:34.942Z,99.90
2022-09-25T07:43:06.031Z,99.90
2022-09-25T07:45:41.543Z,99.90
2022-09-25T07:48:11.985Z,99.90
2022-09-25T07:50:42.288Z,99.90
2022-09-25T07:53:10.855Z,99.90
2022-09-25T07:55:39.339Z,99.90
2022-09-25T07:58:12.592Z,99.90
2022-09-25T08:00:42.348Z,99.90
2022-09-25T08:03:12.496Z,99.90
2022-09-25T08:05:58.561Z,99.90
2022-09-25T08:08:36.822Z,99.90
2022-09-25T08:11:09.192Z,99.90
2022-09-25T08:14:00.469Z,99.90
2022-09-25T08:16:34.230Z,99.90
2022-09-25T08:19:18.064Z,99.90
2022-09-25T08:21:47.123Z,99.90
2022-09-25T08:24:18.963Z,99.90
2022-09-25T08:26:50.468Z,99.90
2022-09-25T08:29:20.457Z,99.90
2022-09-25T08:31:53.568Z,99.90
2022-09-25T08:34:41.137Z,99.90
2022-09-25T08:37:25.688Z,99.90
2022-09-25T08:39:54.629Z,99.90
2022-09-25T08:42:30.839Z,99.90
2022-09-25T08:45:30.608Z,99.90
2022-09-25T08:48:19.650Z,99.90
2022-09-25T08:50:49.640Z,99.90
2022-09-25T08:53:26.767Z,99.90
2022-09-25T08:56:13.176Z,99.90
2022-09-25T08:58:47.560Z,99.90
2022-09-25T09:01:20.915Z,99.90
2022-09-25T09:03:59.088Z,99.90
2022-09-25T09:06:32.986Z,99.90
2022-09-25T09:09:11.694Z,99.90
2022-09-25T09:11:46.738Z,99.90
2022-09-25T09:14:18.388Z,99.90
2022-09-25T09:16:55.896Z,99.90
2022-09-25T09:19:25.469Z,99.90
2022-09-25T09:22:00.901Z,99.90
2022-09-25T09:24:49.724Z,99.90
2022-09-25T09:27:28.629Z,99.90
2022-09-25T09:30:23.408Z,99.90
2022-09-25T09:33:22.094Z,99.90
2022-09-25T09:36:10.470Z,99.90
2022-09-25T09:38:54.721Z,99.90
2022-09-25T09:41:36.595Z,99.90
2022-09-25T09:44:13.829Z,99.90
2022-09-25T09:46:51.150Z,99.90
2022-09-25T09:49:27.210Z,99.90
2022-09-25T09:52:02.434Z,99.90
2022-09-25T09:54:35.817Z,99.90
2022-09-25T09:57:12.375Z,99.90
2022-09-25T09:59:47.275Z,99.90
2022-09-25T10:02:30.773Z,99.90
2022-09-25T10:05:03.893Z,99.90
2022-09-25T10:07:37.194Z,99.90
2022-09-25T10:10:14.313Z,99.90
2022-09-25T10:12:46.128Z,99.90
2022-09-25T10:15:22.059Z,99.90
2022-09-25T10:18:02.080Z,99.90
2022-09-25T10:20:38.339Z,99.90
2022-09-25T10:23:23.482Z,99.90
2022-09-25T10:25:55.839Z,99.90
2022-09-25T10:28:30.573Z,99.90
2022-09-25T10:31:00.120Z,99.90
2022-09-25T10:33:30.743Z,99.90
2022-09-25T10:36:01.829Z,99.90
2022-09-25T10:38:44.469Z,99.90
2022-09-25T10:41:20.256Z,99.90
2022-09-25T10:44:00.239Z,99.90
2022-09-25T10:46:48.940Z,99.90
2022-09-25T10:49:38.400Z,99.90
2022-09-25T10:52:10.167Z,99.90
2022-09-25T10:54:44.510Z,99.90
2022-09-25T10:57:22.685Z,99.90
2022-09-25T11:00:20.695Z,99.90
2022-09-25T11:03:00.058Z,99.90
2022-09-25T11:05:38.576Z,99.90
2022-09-25T11:08:16.510Z,99.90
2022-09-25T11:10:53.140Z,99.90
2022-09-25T11:13:26.399Z,99.90
2022-09-25T11:16:00.531Z,99.90
2022-09-25T11:18:41.414Z,99.90
2022-09-25T11:21:22.776Z,99.90
2022-09-25T11:24:19.298Z,99.90
2022-09-25T11:27:05.801Z,99.90
2022-09-25T11:29:44.594Z,99.90
2022-09-25T11:32:29.402Z,99.90
2022-09-25T11:35:36.594Z,99.90
2022-09-25T11:38:41.539Z,99.90
2022-09-25T11:41:23.148Z,99.90
2022-09-25T11:44:17.560Z,99.90
2022-09-25T11:47:02.687Z,99.90
2022-09-25T11:49:34.636Z,99.90
2022-09-25T11:52:30.332Z,99.90
2022-09-25T11:55:49.841Z,99.90
2022-09-25T11:58:50.774Z,99.90
2022-09-25T12:01:28.189Z,99.90
2022-09-25T12:04:41.440Z,99.90
2022-09-25T12:07:40.160Z,99.90
2022-09-25T12:10:33.765Z,99.90
2022-09-25T12:13:28.732Z,99.90
2022-09-25T12:16:09.211Z,99.90
2022-09-25T12:19:16.338Z,99.90
2022-09-25T12:21:58.792Z,99.90
2022-09-25T12:24:58.271Z,99.90
2022-09-25T12:27:41.749Z,99.90
2022-09-25T12:30:25.388Z,99.90
2022-09-25T12:37:32.504Z,99.90
2022-09-25T12:40:19.555Z,99.90
2022-09-25T12:42:53.325Z,99.90
2022-09-25T12:45:34.539Z,97.10
2022-09-25T12:48:12.628Z,97.90
2022-09-25T12:51:04.951Z,98.10
2022-09-25T12:53:41.130Z,99.60
2022-09-25T12:56:14.814Z,99.00
2022-09-25T12:58:57.618Z,99.90
2022-09-25T13:01:32.869Z,99.90
2022-09-25T13:04:18.777Z,99.20
2022-09-25T13:07:00.666Z,95.80
2022-09-25T13:09:40.919Z,97.10
2022-09-25T13:12:33.703Z,95.20
2022-09-25T13:15:09.562Z,94.50
2022-09-25T13:17:47.116Z,97.70
2022-09-25T13:21:01.104Z,96.60
2022-09-25T13:23:37.959Z,98.00
2022-09-25T13:26:32.438Z,98.30
2022-09-25T13:29:23.984Z,95.60
2022-09-25T13:32:06.698Z,95.00
2022-09-25T13:34:45.067Z,93.90
2022-09-25T13:37:16.488Z,96.40
2022-09-25T13:40:15.050Z,97.10
2022-09-25T13:42:50.145Z,99.80
2022-09-25T13:45:33.543Z,99.90
2022-09-25T13:48:15.902Z,99.90
2022-09-25T13:50:45.696Z,99.90
2022-09-25T13:53:52.188Z,99.90
2022-09-25T13:56:53.619Z,99.90
2022-09-25T13:59:37.047Z,99.90
2022-09-25T14:02:40.391Z,99.90
2022-09-25T14:05:18.175Z,99.90
2022-09-25T14:08:11.655Z,99.90
2022-09-25T14:11:05.703Z,99.90
2022-09-25T14:13:45.798Z,99.90
2022-09-25T14:16:46.840Z,99.90
2022-09-25T14:19:29.139Z,99.90
2022-09-25T14:22:20.969Z,99.90
2022-09-25T14:24:55.297Z,99.90
2022-09-25T14:27:41.790Z,99.90
2022-09-25T14:30:15.070Z,99.90
2022-09-25T14:32:58.456Z,99.90
2022-09-25T14:35:41.646Z,99.90
2022-09-25T14:38:37.473Z,99.90
2022-09-25T14:41:24.085Z,99.90
2022-09-25T14:44:17.029Z,99.90
2022-09-25T14:46:58.397Z,99.90
2022-09-25T14:49:38.241Z,99.90
2022-09-25T14:52:22.122Z,99.90
2022-09-25T14:55:00.639Z,99.90
2022-09-25T14:57:34.214Z,99.90
2022-09-25T15:00:18.149Z,99.90
2022-09-25T15:02:59.852Z,99.90
2022-09-25T15:05:35.199Z,99.90
2022-09-25T15:08:21.799Z,99.90
2022-09-25T15:11:03.225Z,99.90
2022-09-25T15:13:35.030Z,99.90
2022-09-25T15:16:22.589Z,99.90
2022-09-25T15:19:00.080Z,99.90
2022-09-25T15:21:45.534Z,99.90
2022-09-25T15:24:17.298Z,99.90
2022-09-25T15:26:51.779Z,99.90
2022-09-25T15:29:23.028Z,99.90
2022-09-25T15:31:52.670Z,99.90
2022-09-25T15:34:26.234Z,99.90
2022-09-25T15:36:55.670Z,99.90
2022-09-25T15:39:26.115Z,99.90
2022-09-25T15:41:54.402Z,99.90
2022-09-25T15:44:33.759Z,99.90
2022-09-25T15:47:03.343Z,99.90
2022-09-25T15:49:38.330Z,99.90
2022-09-25T15:52:20.952Z,99.90
2022-09-25T15:54:50.290Z,99.90
2022-09-25T15:57:32.210Z,99.90
2022-09-25T16:00:26.258Z,99.90
2022-09-25T16:03:36.238Z,99.90
2022-09-25T16:06:06.162Z,99.90
2022-09-25T16:08:37.694Z,99.90
2022-09-25T16:11:17.525Z,99.90
2022-09-25T16:13:55.512Z,99.90
2022-09-25T16:17:18.855Z,99.90
2022-09-25T16:20:39.605Z,99.90
2022-09-25T16:23:20.342Z,99.90
2022-09-25T16:26:03.914Z,99.90
2022-09-25T16:28:54.944Z,99.90
2022-09-25T16:31:26.190Z,99.90
2022-09-25T16:34:27.544Z,99.90
2022-09-25T16:37:23.306Z,99.90
2022-09-25T16:40:12.448Z,99.90
2022-09-25T16:42:59.478Z,99.90
2022-09-25T16:45:58.140Z,99.90
2022-09-25T16:48:31.807Z,99.90
2022-09-25T16:51:24.249Z,99.90
2022-09-25T16:53:56.489Z,99.90
2022-09-25T16:56:37.860Z,99.90
2022-09-25T16:59:17.686Z,99.90
2022-09-25T17:01:53.634Z,99.90
2022-09-25T17:04:32.009Z,99.90
2022-09-25T17:07:01.760Z,99.90
2022-09-25T17:09:32.727Z,99.90
2022-09-25T17:12:20.384Z,99.90
2022-09-25T17:14:51.429Z,99.90
2022-09-25T17:17:21.748Z,99.90
2022-09-25T17:19:51.407Z,99.90
2022-09-25T17:22:30.512Z,99.90
2022-09-25T17:25:02.951Z,99.90
2022-09-25T17:27:31.533Z,99.90
2022-09-25T17:30:03.469Z,99.90
2022-09-25T17:32:36.299Z,99.90
2022-09-25T17:35:32.924Z,99.90
2022-09-25T17:38:13.248Z,99.90
2022-09-25T17:40:54.245Z,99.90
2022-09-25T17:43:25.783Z,99.90
2022-09-25T17:46:02.839Z,99.90
2022-09-25T17:51:47.077Z,99.90
2022-09-25T17:54:17.362Z,99.90
2022-09-25T17:56:46.571Z,99.90
2022-09-25T17:59:15.655Z,99.90
2022-09-25T18:01:45.266Z,99.90
2022-09-25T18:04:21.129Z,99.90
2022-09-25T18:06:50.509Z,99.90
2022-09-25T18:09:18.837Z,99.90
2022-09-25T18:11:48.558Z,99.90
2022-09-25T18:14:17.611Z,99.90
2022-09-25T18:16:47.669Z,99.90
2022-09-25T18:19:35.489Z,99.90
2022-09-25T18:22:20.759Z,99.90
2022-09-25T18:24:56.588Z,99.90
2022-09-25T18:27:27.256Z,99.90
2022-09-25T18:29:56.020Z,99.90
2022-09-25T18:32:28.251Z,99.90
2022-09-25T18:34:56.880Z,99.90
2022-09-25T18:37:25.152Z,99.90
2022-09-25T18:39:53.514Z,99.90
2022-09-25T18:42:21.816Z,99.90
2022-09-25T18:44:50.236Z,99.90
2022-09-25T18:47:20.382Z,99.90
2022-09-25T18:49:51.791Z,99.90
2022-09-25T18:52:22.121Z,99.90
2022-09-25T18:54:52.388Z,99.90
2022-09-25T18:57:22.680Z,99.90
2022-09-25T18:59:50.978Z,99.90
2022-09-25T19:02:22.061Z,99.90
2022-09-25T19:04:56.001Z,99.90
2022-09-25T19:07:30.281Z,99.90
2022-09-25T19:10:01.798Z,99.90
2022-09-25T19:12:30.308Z,99.90
2022-09-25T19:14:58.787Z,99.90
2022-09-25T19:17:27.006Z,99.90
2022-09-25T19:19:56.685Z,99.90
2022-09-25T19:22:25.460Z,99.90
2022-09-25T19:24:54.572Z,99.90
2022-09-25T19:27:23.890Z,99.90
2022-09-25T19:29:52.533Z,99.90
2022-09-25T19:32:20.784Z,99.90
2022-09-25T19:34:50.432Z,99.90
2022-09-25T19:37:19.931Z,99.90
2022-09-25T19:40:05.221Z,99.90
2022-09-25T19:42:37.427Z,99.90
2022-09-25T19:45:06.538Z,99.90
2022-09-25T19:47:34.844Z,99.90
2022-09-25T19:50:07.073Z,99.90
2022-09-25T19:52:38.087Z,99.90
2022-09-25T19:55:07.991Z,99.90
2022-09-25T19:57:36.818Z,99.90
2022-09-25T20:00:06.894Z,99.90
2022-09-25T20:02:35.242Z,99.90
2022-09-25T20:05:03.717Z,99.90
2022-09-25T20:07:32.075Z,99.90
2022-09-25T20:10:02.274Z,99.90
2022-09-25T20:12:30.584Z,99.90
2022-09-25T20:14:58.963Z,99.90
2022-09-25T20:17:27.275Z,99.90
2022-09-25T20:19:55.611Z,99.90
2022-09-25T20:22:25.523Z,99.90
2022-09-25T20:24:53.917Z,99.90
2022-09-25T20:27:23.782Z,99.90
2022-09-25T20:29:52.117Z,99.90
2022-09-25T20:32:20.461Z,99.90
2022-09-25T20:34:48.733Z,99.90
2022-09-25T20:37:53.915Z,99.90
2022-09-25T20:40:23.232Z,99.90
2022-09-25T20:42:52.846Z,99.90
2022-09-25T20:45:21.141Z,99.90
2022-09-25T20:50:50.952Z,99.90
2022-09-25T20:53:50.710Z,99.90
2022-09-25T20:56:19.766Z,99.90
2022-09-25T20:58:53.359Z,99.90
2022-09-25T21:01:24.247Z,99.90
2022-09-25T21:03:53.543Z,99.90
2022-09-25T21:06:23.174Z,99.90
2022-09-25T21:08:53.881Z,99.90
2022-09-25T21:11:22.753Z,99.90
2022-09-25T21:13:54.703Z,99.90
2022-09-25T21:16:23.856Z,99.90
2022-09-25T21:18:53.690Z,99.90
2022-09-25T21:21:23.095Z,99.90
2022-09-25T21:23:53.935Z,99.90
2022-09-25T21:26:25.211Z,99.90
2022-09-25T21:28:56.327Z,99.90
2022-09-25T21:31:30.756Z,99.90
2022-09-25T21:34:00.244Z,99.90
2022-09-25T21:36:29.519Z,99.90
2022-09-25T21:38:58.279Z,99.90
2022-09-25T21:41:28.619Z,99.90
2022-09-25T21:43:59.570Z,99.90
2022-09-25T21:46:28.807Z,99.90
2022-09-25T21:48:58.914Z,99.90
2022-09-25T21:51:29.534Z,99.90
2022-09-25T21:53:58.236Z,99.90
2022-09-25T21:56:28.802Z,99.90
2022-09-25T21:59:01.963Z,99.90
2022-09-25T22:01:35.634Z,99.90
2022-09-25T22:04:05.092Z,99.90
2022-09-25T22:06:35.383Z,99.90
2022-09-25T22:09:06.478Z,99.90
2022-09-25T22:11:35.270Z,99.90
2022-09-25T22:14:05.962Z,99.90
2022-09-25T22:16:36.657Z,99.90
2022-09-25T22:19:10.977Z,99.90
2022-09-25T22:21:40.291Z,99.90
2022-09-25T22:24:09.065Z,99.90
2022-09-25T22:26:39.206Z,99.90
2022-09-25T22:29:09.106Z,99.90
2022-09-25T22:31:43.010Z,99.90
2022-09-25T22:34:17.819Z,99.90
2022-09-25T22:36:46.532Z,99.90
2022-09-25T22:39:16.542Z,99.90
2022-09-25T22:41:44.966Z,99.90
2022-09-25T22:44:14.634Z,99.90
2022-09-25T22:46:42.862Z,99.90
2022-09-25T22:49:12.145Z,99.90
2022-09-25T22:51:40.534Z,99.90
2022-09-25T22:54:08.892Z,99.90
2022-09-25T22:56:37.419Z,99.90
2022-09-25T22:59:07.937Z,99.90
2022-09-25T23:01:40.244Z,99.90
2022-09-25T23:04:11.948Z,99.90
2022-09-25T23:06:40.383Z,99.90
2022-09-25T23:09:11.654Z,99.90
2022-09-25T23:11:40.434Z,99.90
2022-09-25T23:14:10.929Z,99.90
2022-09-25T23:16:40.698Z,99.90
2022-09-25T23:19:09.160Z,99.90
2022-09-25T23:21:37.681Z,99.90
2022-09-25T23:24:08.325Z,99.90
2022-09-25T23:26:36.598Z,99.90
2022-09-25T23:29:04.914Z,99.90
2022-09-25T23:31:34.243Z,99.90
2022-09-25T23:34:04.494Z,99.90
2022-09-25T23:36:33.772Z,99.90
2022-09-25T23:39:02.651Z,99.90
2022-09-25T23:41:33.050Z,99.90
2022-09-25T23:44:02.888Z,99.90
2022-09-25T23:46:33.505Z,99.90
2022-09-25T23:49:03.892Z,99.90
2022-09-25T23:51:34.517Z,99.90
2022-09-25T23:54:03.354Z,99.90
2022-09-25T23:56:34.636Z,99.90
2022-09-25T23:59:03.799Z,99.90
